sensor_id;sensor_type;location;lat;lon;timestamp;P1;durP1;ratioP1;P2;durP2;ratioP2
16099;SDS011;8154;50.830;12.082;2022-12-20T00:00:30;2.70;;;2.50;;
16099;SDS011;8154;50.830;12.082;2022-12-20T00:03:28;2.72;;;2.53;;
16099;SDS011;8154;50.830;12.082;2022-12-20T00:06:12;2.85;;;2.65;;
16099;SDS011;8154;50.830;12.082;2022-12-20T00:08:59;2.60;;;2.40;;
16099;SDS011;8154;50.830;12.082;2022-12-20T00:11:39;2.72;;;2.53;;
16099;SDS011;8154;50.830;12.082;2022-12-20T00:14:24;2.70;;;2.50;;
16099;SDS011;8154;50.830;12.082;2022-12-20T00:17:06;2.83;;;2.63;;
16099;SDS011;8154;50.830;12.082;2022-12-20T00:19:58;2.60;;;2.40;;
16099;SDS011;8154;50.830;12.082;2022-12-20T00:22:45;2.63;;;2.42;;
16099;SDS011;8154;50.830;12.082;2022-12-20T00:25:35;2.70;;;2.50;;
16099;SDS011;8154;50.830;12.082;2022-12-20T00:28:19;2.83;;;2.63;;
16099;SDS011;8154;50.830;12.082;2022-12-20T00:31:04;2.80;;;2.60;;
16099;SDS011;8154;50.830;12.082;2022-12-20T00:33:50;2.70;;;2.50;;
16099;SDS011;8154;50.830;12.082;2022-12-20T00:36:56;2.78;;;2.58;;
16099;SDS011;8154;50.830;12.082;2022-12-20T00:39:54;2.50;;;2.30;;
16099;SDS011;8154;50.830;12.082;2022-12-20T00:42:38;2.50;;;2.30;;
16099;SDS011;8154;50.830;12.082;2022-12-20T00:45:22;2.80;;;2.60;;
16099;SDS011;8154;50.830;12.082;2022-12-20T00:48:07;2.80;;;2.60;;
16099;SDS011;8154;50.830;12.082;2022-12-20T00:51:12;2.80;;;2.60;;
16099;SDS011;8154;50.830;12.082;2022-12-20T00:53:58;2.70;;;2.50;;
16099;SDS011;8154;50.830;12.082;2022-12-20T00:56:59;2.85;;;2.65;;
16099;SDS011;8154;50.830;12.082;2022-12-20T01:00:03;2.80;;;2.60;;
16099;SDS011;8154;50.830;12.082;2022-12-20T01:02:59;2.70;;;2.50;;
16099;SDS011;8154;50.830;12.082;2022-12-20T01:05:48;2.60;;;2.40;;
16099;SDS011;8154;50.830;12.082;2022-12-20T01:08:35;2.83;;;2.63;;
16099;SDS011;8154;50.830;12.082;2022-12-20T01:11:24;2.67;;;2.47;;
16099;SDS011;8154;50.830;12.082;2022-12-20T01:14:30;2.65;;;2.45;;
16099;SDS011;8154;50.830;12.082;2022-12-20T01:17:16;2.63;;;2.42;;
16099;SDS011;8154;50.830;12.082;2022-12-20T01:20:21;2.58;;;2.38;;
16099;SDS011;8154;50.830;12.082;2022-12-20T01:23:25;2.70;;;2.50;;
16099;SDS011;8154;50.830;12.082;2022-12-20T01:25:58;2.70;;;2.50;;
16099;SDS011;8154;50.830;12.082;2022-12-20T01:29:03;2.60;;;2.40;;
16099;SDS011;8154;50.830;12.082;2022-12-20T01:32:02;2.60;;;2.40;;
16099;SDS011;8154;50.830;12.082;2022-12-20T01:34:46;2.63;;;2.42;;
16099;SDS011;8154;50.830;12.082;2022-12-20T01:37:30;2.42;;;2.30;;
16099;SDS011;8154;50.830;12.082;2022-12-20T01:40:37;2.70;;;2.50;;
16099;SDS011;8154;50.830;12.082;2022-12-20T01:43:22;2.42;;;2.22;;
16099;SDS011;8154;50.830;12.082;2022-12-20T01:46:07;2.53;;;2.33;;
16099;SDS011;8154;50.830;12.082;2022-12-20T01:52:03;2.47;;;2.28;;
16099;SDS011;8154;50.830;12.082;2022-12-20T01:55:14;2.40;;;2.20;;
16099;SDS011;8154;50.830;12.082;2022-12-20T01:58:05;2.60;;;2.40;;
16099;SDS011;8154;50.830;12.082;2022-12-20T02:01:06;2.50;;;2.30;;
16099;SDS011;8154;50.830;12.082;2022-12-20T02:03:58;2.65;;;2.45;;
16099;SDS011;8154;50.830;12.082;2022-12-20T02:06:50;2.60;;;2.40;;
16099;SDS011;8154;50.830;12.082;2022-12-20T02:09:34;2.33;;;2.15;;
16099;SDS011;8154;50.830;12.082;2022-12-20T02:12:22;2.70;;;2.50;;
16099;SDS011;8154;50.830;12.082;2022-12-20T02:15:15;2.40;;;2.20;;
16099;SDS011;8154;50.830;12.082;2022-12-20T02:21:27;2.50;;;2.30;;
16099;SDS011;8154;50.830;12.082;2022-12-20T02:27:37;2.65;;;2.45;;
16099;SDS011;8154;50.830;12.082;2022-12-20T02:30:36;2.42;;;2.22;;
16099;SDS011;8154;50.830;12.082;2022-12-20T02:33:38;2.40;;;2.20;;
16099;SDS011;8154;50.830;12.082;2022-12-20T02:36:26;2.60;;;2.40;;
16099;SDS011;8154;50.830;12.082;2022-12-20T02:39:12;2.67;;;2.47;;
16099;SDS011;8154;50.830;12.082;2022-12-20T02:42:21;2.40;;;2.20;;
16099;SDS011;8154;50.830;12.082;2022-12-20T02:45:17;2.50;;;2.30;;
16099;SDS011;8154;50.830;12.082;2022-12-20T02:48:09;2.40;;;2.20;;
16099;SDS011;8154;50.830;12.082;2022-12-20T02:50:54;2.45;;;2.25;;
16099;SDS011;8154;50.830;12.082;2022-12-20T02:53:52;2.60;;;2.40;;
16099;SDS011;8154;50.830;12.082;2022-12-20T02:56:38;2.40;;;2.20;;
16099;SDS011;8154;50.830;12.082;2022-12-20T02:59:48;2.50;;;2.30;;
16099;SDS011;8154;50.830;12.082;2022-12-20T03:02:39;2.60;;;2.40;;
16099;SDS011;8154;50.830;12.082;2022-12-20T03:05:52;2.15;;;2.00;;
16099;SDS011;8154;50.830;12.082;2022-12-20T03:08:39;2.50;;;2.30;;
16099;SDS011;8154;50.830;12.082;2022-12-20T03:11:23;2.30;;;2.17;;
16099;SDS011;8154;50.830;12.082;2022-12-20T03:14:07;2.55;;;2.35;;
16099;SDS011;8154;50.830;12.082;2022-12-20T03:16:56;2.20;;;2.10;;
16099;SDS011;8154;50.830;12.082;2022-12-20T03:19:58;2.20;;;2.10;;
16099;SDS011;8154;50.830;12.082;2022-12-20T03:22:56;2.55;;;2.35;;
16099;SDS011;8154;50.830;12.082;2022-12-20T03:26:00;2.25;;;2.15;;
16099;SDS011;8154;50.830;12.082;2022-12-20T03:28:46;2.50;;;2.30;;
16099;SDS011;8154;50.830;12.082;2022-12-20T03:31:30;2.20;;;2.10;;
16099;SDS011;8154;50.830;12.082;2022-12-20T03:34:14;2.50;;;2.30;;
16099;SDS011;8154;50.830;12.082;2022-12-20T03:36:59;2.50;;;2.30;;
16099;SDS011;8154;50.830;12.082;2022-12-20T03:39:54;2.42;;;2.28;;
16099;SDS011;8154;50.830;12.082;2022-12-20T03:42:49;2.50;;;2.30;;
16099;SDS011;8154;50.830;12.082;2022-12-20T03:45:33;2.47;;;2.28;;
16099;SDS011;8154;50.830;12.082;2022-12-20T03:48:31;2.60;;;2.40;;
16099;SDS011;8154;50.830;12.082;2022-12-20T03:51:16;2.45;;;2.25;;
16099;SDS011;8154;50.830;12.082;2022-12-20T03:54:20;2.40;;;2.20;;
16099;SDS011;8154;50.830;12.082;2022-12-20T03:57:04;2.50;;;2.30;;
16099;SDS011;8154;50.830;12.082;2022-12-20T03:59:51;2.55;;;2.35;;
16099;SDS011;8154;50.830;12.082;2022-12-20T04:02:36;2.38;;;2.17;;
16099;SDS011;8154;50.830;12.082;2022-12-20T04:05:07;2.60;;;2.40;;
16099;SDS011;8154;50.830;12.082;2022-12-20T04:07:51;2.60;;;2.40;;
16099;SDS011;8154;50.830;12.082;2022-12-20T04:10:35;2.45;;;2.25;;
16099;SDS011;8154;50.830;12.082;2022-12-20T04:13:56;2.40;;;2.20;;
16099;SDS011;8154;50.830;12.082;2022-12-20T04:16:41;2.35;;;2.15;;
16099;SDS011;8154;50.830;12.082;2022-12-20T04:19:27;2.50;;;2.30;;
16099;SDS011;8154;50.830;12.082;2022-12-20T04:22:18;2.40;;;2.20;;
16099;SDS011;8154;50.830;12.082;2022-12-20T04:24:44;2.53;;;2.33;;
16099;SDS011;8154;50.830;12.082;2022-12-20T04:27:28;2.47;;;2.28;;
16099;SDS011;8154;50.830;12.082;2022-12-20T04:30:20;2.50;;;2.30;;
16099;SDS011;8154;50.830;12.082;2022-12-20T04:33:04;2.38;;;2.17;;
16099;SDS011;8154;50.830;12.082;2022-12-20T04:35:48;2.35;;;2.15;;
16099;SDS011;8154;50.830;12.082;2022-12-20T04:38:33;2.13;;;2.00;;
16099;SDS011;8154;50.830;12.082;2022-12-20T04:41:17;2.20;;;2.10;;
16099;SDS011;8154;50.830;12.082;2022-12-20T04:44:07;2.10;;;2.00;;
16099;SDS011;8154;50.830;12.082;2022-12-20T04:46:51;2.33;;;2.13;;
16099;SDS011;8154;50.830;12.082;2022-12-20T04:49:36;2.35;;;2.15;;
16099;SDS011;8154;50.830;12.082;2022-12-20T04:52:23;2.42;;;2.22;;
16099;SDS011;8154;50.830;12.082;2022-12-20T04:55:29;2.38;;;2.17;;
16099;SDS011;8154;50.830;12.082;2022-12-20T04:58:24;2.50;;;2.30;;
16099;SDS011;8154;50.830;12.082;2022-12-20T05:01:15;2.10;;;2.00;;
16099;SDS011;8154;50.830;12.082;2022-12-20T05:04:00;2.15;;;2.00;;
16099;SDS011;8154;50.830;12.082;2022-12-20T05:06:58;2.60;;;2.40;;
16099;SDS011;8154;50.830;12.082;2022-12-20T05:10:02;2.33;;;2.20;;
16099;SDS011;8154;50.830;12.082;2022-12-20T05:12:47;2.38;;;2.22;;
16099;SDS011;8154;50.830;12.082;2022-12-20T05:15:52;2.30;;;2.15;;
16099;SDS011;8154;50.830;12.082;2022-12-20T05:18:41;2.53;;;2.10;;
16099;SDS011;8154;50.830;12.082;2022-12-20T05:21:37;2.40;;;2.20;;
16099;SDS011;8154;50.830;12.082;2022-12-20T05:24:40;2.20;;;2.10;;
16099;SDS011;8154;50.830;12.082;2022-12-20T05:27:45;2.40;;;2.20;;
16099;SDS011;8154;50.830;12.082;2022-12-20T05:30:36;2.50;;;2.30;;
16099;SDS011;8154;50.830;12.082;2022-12-20T05:33:28;2.38;;;2.20;;
16099;SDS011;8154;50.830;12.082;2022-12-20T05:36:13;2.10;;;2.00;;
16099;SDS011;8154;50.830;12.082;2022-12-20T05:39:11;2.33;;;2.15;;
16099;SDS011;8154;50.830;12.082;2022-12-20T05:41:55;2.22;;;2.13;;
16099;SDS011;8154;50.830;12.082;2022-12-20T05:44:39;2.45;;;2.25;;
16099;SDS011;8154;50.830;12.082;2022-12-20T05:47:26;2.40;;;2.20;;
16099;SDS011;8154;50.830;12.082;2022-12-20T05:50:11;2.35;;;2.15;;
16099;SDS011;8154;50.830;12.082;2022-12-20T05:52:57;2.50;;;2.30;;
16099;SDS011;8154;50.830;12.082;2022-12-20T05:55:44;2.60;;;2.40;;
16099;SDS011;8154;50.830;12.082;2022-12-20T05:58:20;2.20;;;2.10;;
16099;SDS011;8154;50.830;12.082;2022-12-20T06:01:06;2.13;;;2.03;;
16099;SDS011;8154;50.830;12.082;2022-12-20T06:04:11;2.40;;;2.20;;
16099;SDS011;8154;50.830;12.082;2022-12-20T06:06:56;2.50;;;2.30;;
16099;SDS011;8154;50.830;12.082;2022-12-20T06:09:40;2.20;;;2.10;;
16099;SDS011;8154;50.830;12.082;2022-12-20T06:12:44;2.17;;;2.08;;
16099;SDS011;8154;50.830;12.082;2022-12-20T06:15:39;2.50;;;2.30;;
16099;SDS011;8154;50.830;12.082;2022-12-20T06:18:40;2.35;;;2.15;;
16099;SDS011;8154;50.830;12.082;2022-12-20T06:21:08;2.35;;;2.15;;
16099;SDS011;8154;50.830;12.082;2022-12-20T06:23:55;2.33;;;2.15;;
16099;SDS011;8154;50.830;12.082;2022-12-20T06:26:39;2.20;;;2.10;;
16099;SDS011;8154;50.830;12.082;2022-12-20T06:29:26;2.22;;;2.08;;
16099;SDS011;8154;50.830;12.082;2022-12-20T06:32:10;2.38;;;2.17;;
16099;SDS011;8154;50.830;12.082;2022-12-20T06:34:55;2.40;;;2.20;;
16099;SDS011;8154;50.830;12.082;2022-12-20T06:37:39;2.50;;;2.30;;
16099;SDS011;8154;50.830;12.082;2022-12-20T06:40:08;2.40;;;2.22;;
16099;SDS011;8154;50.830;12.082;2022-12-20T06:42:56;2.30;;;2.20;;
16099;SDS011;8154;50.830;12.082;2022-12-20T06:45:40;2.60;;;2.40;;
16099;SDS011;8154;50.830;12.082;2022-12-20T06:48:35;2.50;;;2.30;;
16099;SDS011;8154;50.830;12.082;2022-12-20T06:51:22;2.10;;;2.00;;
16099;SDS011;8154;50.830;12.082;2022-12-20T06:54:07;2.35;;;2.15;;
16099;SDS011;8154;50.830;12.082;2022-12-20T06:57:05;2.20;;;2.10;;
16099;SDS011;8154;50.830;12.082;2022-12-20T06:59:54;2.17;;;2.08;;
16099;SDS011;8154;50.830;12.082;2022-12-20T07:02:55;2.38;;;2.20;;
16099;SDS011;8154;50.830;12.082;2022-12-20T07:05:41;2.10;;;2.00;;
16099;SDS011;8154;50.830;12.082;2022-12-20T07:08:43;2.33;;;2.20;;
16099;SDS011;8154;50.830;12.082;2022-12-20T07:11:27;2.45;;;2.25;;
16099;SDS011;8154;50.830;12.082;2022-12-20T07:14:28;2.20;;;2.10;;
16099;SDS011;8154;50.830;12.082;2022-12-20T07:17:13;2.42;;;2.22;;
16099;SDS011;8154;50.830;12.082;2022-12-20T07:19:58;2.40;;;2.20;;
16099;SDS011;8154;50.830;12.082;2022-12-20T07:22:42;2.40;;;2.20;;
16099;SDS011;8154;50.830;12.082;2022-12-20T07:25:34;2.20;;;2.10;;
16099;SDS011;8154;50.830;12.082;2022-12-20T07:28:39;2.17;;;2.08;;
16099;SDS011;8154;50.830;12.082;2022-12-20T07:31:37;2.50;;;2.30;;
16099;SDS011;8154;50.830;12.082;2022-12-20T07:34:21;2.22;;;2.13;;
16099;SDS011;8154;50.830;12.082;2022-12-20T07:37:06;2.20;;;2.10;;
16099;SDS011;8154;50.830;12.082;2022-12-20T07:39:51;2.22;;;2.10;;
16099;SDS011;8154;50.830;12.082;2022-12-20T07:42:38;2.30;;;2.10;;
16099;SDS011;8154;50.830;12.082;2022-12-20T07:45:23;2.08;;;1.98;;
16099;SDS011;8154;50.830;12.082;2022-12-20T07:48:07;2.40;;;2.20;;
16099;SDS011;8154;50.830;12.082;2022-12-20T07:50:53;2.33;;;2.13;;
16099;SDS011;8154;50.830;12.082;2022-12-20T07:53:46;2.35;;;2.15;;
16099;SDS011;8154;50.830;12.082;2022-12-20T07:56:40;2.45;;;2.25;;
16099;SDS011;8154;50.830;12.082;2022-12-20T07:59:28;2.38;;;2.20;;
16099;SDS011;8154;50.830;12.082;2022-12-20T08:02:25;2.50;;;2.30;;
16099;SDS011;8154;50.830;12.082;2022-12-20T08:05:28;2.17;;;2.05;;
16099;SDS011;8154;50.830;12.082;2022-12-20T08:08:20;2.47;;;2.28;;
16099;SDS011;8154;50.830;12.082;2022-12-20T08:11:06;2.40;;;2.20;;
16099;SDS011;8154;50.830;12.082;2022-12-20T08:14:09;2.50;;;2.30;;
16099;SDS011;8154;50.830;12.082;2022-12-20T08:16:54;2.20;;;2.10;;
16099;SDS011;8154;50.830;12.082;2022-12-20T08:19:38;2.00;;;1.90;;
16099;SDS011;8154;50.830;12.082;2022-12-20T08:22:23;2.40;;;2.20;;
16099;SDS011;8154;50.830;12.082;2022-12-20T08:25:09;2.22;;;2.03;;
16099;SDS011;8154;50.830;12.082;2022-12-20T08:27:56;2.20;;;2.10;;
16099;SDS011;8154;50.830;12.082;2022-12-20T08:30:59;2.00;;;1.90;;
16099;SDS011;8154;50.830;12.082;2022-12-20T08:33:49;2.10;;;2.00;;
16099;SDS011;8154;50.830;12.082;2022-12-20T08:36:36;2.50;;;2.30;;
16099;SDS011;8154;50.830;12.082;2022-12-20T08:39:31;2.28;;;2.10;;
16099;SDS011;8154;50.830;12.082;2022-12-20T08:42:16;2.30;;;2.10;;
16099;SDS011;8154;50.830;12.082;2022-12-20T08:45:01;2.55;;;2.35;;
16099;SDS011;8154;50.830;12.082;2022-12-20T08:47:45;2.40;;;2.20;;
16099;SDS011;8154;50.830;12.082;2022-12-20T08:50:47;2.20;;;2.00;;
16099;SDS011;8154;50.830;12.082;2022-12-20T08:53:36;2.30;;;2.17;;
16099;SDS011;8154;50.830;12.082;2022-12-20T08:56:22;2.15;;;2.05;;
16099;SDS011;8154;50.830;12.082;2022-12-20T08:59:06;2.50;;;2.30;;
16099;SDS011;8154;50.830;12.082;2022-12-20T09:01:32;2.00;;;1.90;;
16099;SDS011;8154;50.830;12.082;2022-12-20T09:04:17;2.10;;;2.00;;
16099;SDS011;8154;50.830;12.082;2022-12-20T09:06:55;2.15;;;2.05;;
16099;SDS011;8154;50.830;12.082;2022-12-20T09:09:41;2.40;;;2.20;;
16099;SDS011;8154;50.830;12.082;2022-12-20T09:12:25;2.40;;;2.20;;
16099;SDS011;8154;50.830;12.082;2022-12-20T09:15:09;2.30;;;2.10;;
16099;SDS011;8154;50.830;12.082;2022-12-20T09:17:56;2.20;;;2.10;;
16099;SDS011;8154;50.830;12.082;2022-12-20T09:20:42;2.40;;;2.20;;
16099;SDS011;8154;50.830;12.082;2022-12-20T09:23:31;2.15;;;2.05;;
16099;SDS011;8154;50.830;12.082;2022-12-20T09:26:17;2.20;;;2.00;;
16099;SDS011;8154;50.830;12.082;2022-12-20T09:29:03;2.50;;;2.30;;
16099;SDS011;8154;50.830;12.082;2022-12-20T09:31:52;2.30;;;2.20;;
16099;SDS011;8154;50.830;12.082;2022-12-20T09:34:36;2.10;;;2.00;;
16099;SDS011;8154;50.830;12.082;2022-12-20T09:37:03;2.40;;;2.20;;
16099;SDS011;8154;50.830;12.082;2022-12-20T09:39:42;2.38;;;2.20;;
16099;SDS011;8154;50.830;12.082;2022-12-20T09:42:26;2.20;;;2.05;;
16099;SDS011;8154;50.830;12.082;2022-12-20T09:45:28;2.33;;;2.20;;
16099;SDS011;8154;50.830;12.082;2022-12-20T09:48:15;2.20;;;2.00;;
16099;SDS011;8154;50.830;12.082;2022-12-20T10:00:22;2.05;;;1.95;;
16099;SDS011;8154;50.830;12.082;2022-12-20T10:03:08;2.20;;;2.10;;
16099;SDS011;8154;50.830;12.082;2022-12-20T10:09:21;2.15;;;2.05;;
16099;SDS011;8154;50.830;12.082;2022-12-20T10:22:52;2.33;;;2.17;;
16099;SDS011;8154;50.830;12.082;2022-12-20T10:25:41;2.30;;;2.20;;
16099;SDS011;8154;50.830;12.082;2022-12-20T10:28:28;1.95;;;1.85;;
16099;SDS011;8154;50.830;12.082;2022-12-20T10:31:17;2.40;;;2.20;;
16099;SDS011;8154;50.830;12.082;2022-12-20T10:33:45;2.38;;;2.17;;
16099;SDS011;8154;50.830;12.082;2022-12-20T10:36:43;2.45;;;2.25;;
16099;SDS011;8154;50.830;12.082;2022-12-20T10:39:48;2.35;;;2.15;;
16099;SDS011;8154;50.830;12.082;2022-12-20T10:42:37;2.30;;;2.20;;
16099;SDS011;8154;50.830;12.082;2022-12-20T10:45:27;2.13;;;2.03;;
16099;SDS011;8154;50.830;12.082;2022-12-20T10:48:33;2.25;;;2.10;;
16099;SDS011;8154;50.830;12.082;2022-12-20T10:51:36;2.40;;;2.22;;
16099;SDS011;8154;50.830;12.082;2022-12-20T10:57:25;2.17;;;2.05;;
16099;SDS011;8154;50.830;12.082;2022-12-20T11:00:26;2.10;;;2.00;;
16099;SDS011;8154;50.830;12.082;2022-12-20T11:03:32;2.10;;;2.00;;
16099;SDS011;8154;50.830;12.082;2022-12-20T11:06:19;2.20;;;2.08;;
16099;SDS011;8154;50.830;12.082;2022-12-20T11:09:23;2.30;;;2.10;;
16099;SDS011;8154;50.830;12.082;2022-12-20T11:12:14;2.10;;;2.00;;
16099;SDS011;8154;50.830;12.082;2022-12-20T11:21:55;2.03;;;1.92;;
16099;SDS011;8154;50.830;12.082;2022-12-20T11:35:54;2.20;;;2.10;;
16099;SDS011;8154;50.830;12.082;2022-12-20T11:38:49;2.13;;;2.03;;
16099;SDS011;8154;50.830;12.082;2022-12-20T11:42:04;2.20;;;2.10;;
16099;SDS011;8154;50.830;12.082;2022-12-20T11:45:07;2.22;;;2.03;;
16099;SDS011;8154;50.830;12.082;2022-12-20T11:54:06;2.25;;;2.08;;
16099;SDS011;8154;50.830;12.082;2022-12-20T11:57:17;2.40;;;2.20;;
16099;SDS011;8154;50.830;12.082;2022-12-20T11:59:50;2.05;;;1.95;;
16099;SDS011;8154;50.830;12.082;2022-12-20T12:03:02;2.38;;;2.17;;
16099;SDS011;8154;50.830;12.082;2022-12-20T12:06:06;2.50;;;2.30;;
16099;SDS011;8154;50.830;12.082;2022-12-20T12:11:46;2.20;;;2.10;;
16099;SDS011;8154;50.830;12.082;2022-12-20T12:14:43;2.22;;;2.13;;
16099;SDS011;8154;50.830;12.082;2022-12-20T12:17:31;2.40;;;2.20;;
16099;SDS011;8154;50.830;12.082;2022-12-20T12:20:35;2.22;;;2.13;;
16099;SDS011;8154;50.830;12.082;2022-12-20T12:23:09;2.20;;;2.10;;
16099;SDS011;8154;50.830;12.082;2022-12-20T12:26:12;2.45;;;2.25;;
16099;SDS011;8154;50.830;12.082;2022-12-20T12:28:55;2.13;;;2.03;;
16099;SDS011;8154;50.830;12.082;2022-12-20T12:31:49;2.20;;;2.10;;
16099;SDS011;8154;50.830;12.082;2022-12-20T12:47:43;2.80;;;2.60;;
16099;SDS011;8154;50.830;12.082;2022-12-20T12:50:47;2.72;;;2.53;;
16099;SDS011;8154;50.830;12.082;2022-12-20T12:53:40;2.90;;;2.70;;
16099;SDS011;8154;50.830;12.082;2022-12-20T13:05:39;2.80;;;2.60;;
16099;SDS011;8154;50.830;12.082;2022-12-20T13:08:16;2.70;;;2.50;;
16099;SDS011;8154;50.830;12.082;2022-12-20T13:11:01;2.80;;;2.60;;
16099;SDS011;8154;50.830;12.082;2022-12-20T13:13:46;2.80;;;2.60;;
16099;SDS011;8154;50.830;12.082;2022-12-20T13:16:30;2.80;;;2.60;;
16099;SDS011;8154;50.830;12.082;2022-12-20T13:25:26;3.00;;;2.80;;
16099;SDS011;8154;50.830;12.082;2022-12-20T13:33:47;3.08;;;2.88;;
16099;SDS011;8154;50.830;12.082;2022-12-20T13:36:35;3.00;;;2.80;;
16099;SDS011;8154;50.830;12.082;2022-12-20T13:45:02;3.20;;;2.90;;
16099;SDS011;8154;50.830;12.082;2022-12-20T13:47:50;2.90;;;2.70;;
16099;SDS011;8154;50.830;12.082;2022-12-20T13:50:50;2.92;;;2.72;;
16099;SDS011;8154;50.830;12.082;2022-12-20T13:59:31;2.97;;;2.78;;
16099;SDS011;8154;50.830;12.082;2022-12-20T14:02:18;2.88;;;2.67;;
16099;SDS011;8154;50.830;12.082;2022-12-20T14:08:32;2.90;;;2.70;;
16099;SDS011;8154;50.830;12.082;2022-12-20T14:11:35;3.00;;;2.80;;
16099;SDS011;8154;50.830;12.082;2022-12-20T14:14:45;3.00;;;2.80;;
16099;SDS011;8154;50.830;12.082;2022-12-20T14:17:47;2.90;;;2.70;;
16099;SDS011;8154;50.830;12.082;2022-12-20T14:20:58;2.90;;;2.70;;
16099;SDS011;8154;50.830;12.082;2022-12-20T14:23:55;2.90;;;2.70;;
16099;SDS011;8154;50.830;12.082;2022-12-20T14:26:49;2.90;;;2.70;;
16099;SDS011;8154;50.830;12.082;2022-12-20T14:29:43;2.75;;;2.55;;
16099;SDS011;8154;50.830;12.082;2022-12-20T14:32:28;2.90;;;2.70;;
16099;SDS011;8154;50.830;12.082;2022-12-20T14:35:22;2.95;;;2.75;;
16099;SDS011;8154;50.830;12.082;2022-12-20T14:38:18;2.90;;;2.70;;
16099;SDS011;8154;50.830;12.082;2022-12-20T14:44:20;2.80;;;2.60;;
16099;SDS011;8154;50.830;12.082;2022-12-20T14:47:12;2.90;;;2.70;;
16099;SDS011;8154;50.830;12.082;2022-12-20T14:50:05;2.75;;;2.55;;
16099;SDS011;8154;50.830;12.082;2022-12-20T14:53:10;3.05;;;2.85;;
16099;SDS011;8154;50.830;12.082;2022-12-20T14:55:50;3.08;;;2.83;;
16099;SDS011;8154;50.830;12.082;2022-12-20T14:58:35;3.03;;;2.83;;
16099;SDS011;8154;50.830;12.082;2022-12-20T15:01:20;2.72;;;2.53;;
16099;SDS011;8154;50.830;12.082;2022-12-20T15:03:57;2.90;;;2.70;;
16099;SDS011;8154;50.830;12.082;2022-12-20T15:06:44;3.10;;;2.90;;
16099;SDS011;8154;50.830;12.082;2022-12-20T15:09:33;2.70;;;2.50;;
16099;SDS011;8154;50.830;12.082;2022-12-20T15:12:18;3.00;;;2.80;;
16099;SDS011;8154;50.830;12.082;2022-12-20T15:15:22;2.95;;;2.75;;
16099;SDS011;8154;50.830;12.082;2022-12-20T15:17:53;2.97;;;2.78;;
16099;SDS011;8154;50.830;12.082;2022-12-20T15:20:37;2.80;;;2.60;;
16099;SDS011;8154;50.830;12.082;2022-12-20T15:23:23;3.00;;;2.80;;
16099;SDS011;8154;50.830;12.082;2022-12-20T15:26:28;3.08;;;2.88;;
16099;SDS011;8154;50.830;12.082;2022-12-20T15:29:25;2.80;;;2.60;;
16099;SDS011;8154;50.830;12.082;2022-12-20T15:32:14;2.80;;;2.60;;
16099;SDS011;8154;50.830;12.082;2022-12-20T15:34:49;3.05;;;2.85;;
16099;SDS011;8154;50.830;12.082;2022-12-20T15:37:34;2.92;;;2.72;;
16099;SDS011;8154;50.830;12.082;2022-12-20T15:40:21;2.90;;;2.70;;
16099;SDS011;8154;50.830;12.082;2022-12-20T15:43:10;2.83;;;2.63;;
16099;SDS011;8154;50.830;12.082;2022-12-20T15:45:56;2.88;;;2.67;;
16099;SDS011;8154;50.830;12.082;2022-12-20T15:48:41;2.90;;;2.70;;
16099;SDS011;8154;50.830;12.082;2022-12-20T15:51:36;3.00;;;2.80;;
16099;SDS011;8154;50.830;12.082;2022-12-20T15:54:28;2.90;;;2.70;;
16099;SDS011;8154;50.830;12.082;2022-12-20T15:57:18;2.80;;;2.60;;
16099;SDS011;8154;50.830;12.082;2022-12-20T15:59:49;2.90;;;2.70;;
16099;SDS011;8154;50.830;12.082;2022-12-20T16:02:34;2.63;;;2.42;;
16099;SDS011;8154;50.830;12.082;2022-12-20T16:05:18;3.03;;;2.83;;
16099;SDS011;8154;50.830;12.082;2022-12-20T16:08:03;2.70;;;2.50;;
16099;SDS011;8154;50.830;12.082;2022-12-20T16:11:02;2.95;;;2.75;;
16099;SDS011;8154;50.830;12.082;2022-12-20T16:13:49;3.10;;;2.90;;
16099;SDS011;8154;50.830;12.082;2022-12-20T16:16:42;2.92;;;2.70;;
16099;SDS011;8154;50.830;12.082;2022-12-20T16:19:26;2.95;;;2.75;;
16099;SDS011;8154;50.830;12.082;2022-12-20T16:22:20;3.10;;;2.90;;
16099;SDS011;8154;50.830;12.082;2022-12-20T16:25:08;2.88;;;2.65;;
16099;SDS011;8154;50.830;12.082;2022-12-20T16:28:25;3.00;;;2.80;;
16099;SDS011;8154;50.830;12.082;2022-12-20T16:34:28;2.90;;;2.70;;
16099;SDS011;8154;50.830;12.082;2022-12-20T16:37:12;2.90;;;2.70;;
16099;SDS011;8154;50.830;12.082;2022-12-20T16:40:03;3.00;;;2.80;;
16099;SDS011;8154;50.830;12.082;2022-12-20T16:42:52;2.85;;;2.65;;
16099;SDS011;8154;50.830;12.082;2022-12-20T16:45:39;2.97;;;2.78;;
16099;SDS011;8154;50.830;12.082;2022-12-20T16:48:09;3.05;;;2.85;;
16099;SDS011;8154;50.830;12.082;2022-12-20T16:50:56;3.10;;;2.80;;
16099;SDS011;8154;50.830;12.082;2022-12-20T16:53:41;2.95;;;2.75;;
16099;SDS011;8154;50.830;12.082;2022-12-20T16:56:26;3.00;;;2.80;;
16099;SDS011;8154;50.830;12.082;2022-12-20T16:58:55;2.90;;;2.70;;
16099;SDS011;8154;50.830;12.082;2022-12-20T17:01:45;2.83;;;2.63;;
16099;SDS011;8154;50.830;12.082;2022-12-20T17:04:43;2.90;;;2.70;;
16099;SDS011;8154;50.830;12.082;2022-12-20T17:07:41;2.90;;;2.70;;
16099;SDS011;8154;50.830;12.082;2022-12-20T17:10:36;2.88;;;2.67;;
16099;SDS011;8154;50.830;12.082;2022-12-20T17:13:31;2.70;;;2.50;;
16099;SDS011;8154;50.830;12.082;2022-12-20T17:16:35;2.90;;;2.70;;
16099;SDS011;8154;50.830;12.082;2022-12-20T17:19:37;2.67;;;2.47;;
16099;SDS011;8154;50.830;12.082;2022-12-20T17:22:36;3.10;;;2.90;;
16099;SDS011;8154;50.830;12.082;2022-12-20T17:25:31;3.00;;;2.80;;
16099;SDS011;8154;50.830;12.082;2022-12-20T17:28:25;3.22;;;3.00;;
16099;SDS011;8154;50.830;12.082;2022-12-20T17:31:34;2.60;;;2.40;;
16099;SDS011;8154;50.830;12.082;2022-12-20T17:37:08;2.90;;;2.67;;
16099;SDS011;8154;50.830;12.082;2022-12-20T17:39:55;3.30;;;3.00;;
16099;SDS011;8154;50.830;12.082;2022-12-20T17:42:50;2.83;;;2.63;;
16099;SDS011;8154;50.830;12.082;2022-12-20T17:45:35;2.95;;;2.75;;
16099;SDS011;8154;50.830;12.082;2022-12-20T17:48:08;2.80;;;2.60;;
16099;SDS011;8154;50.830;12.082;2022-12-20T17:50:46;3.00;;;2.80;;
16099;SDS011;8154;50.830;12.082;2022-12-20T17:53:48;3.08;;;2.88;;
16099;SDS011;8154;50.830;12.082;2022-12-20T17:56:34;3.20;;;3.00;;
16099;SDS011;8154;50.830;12.082;2022-12-20T17:59:19;3.10;;;2.90;;
16099;SDS011;8154;50.830;12.082;2022-12-20T18:02:39;3.42;;;3.13;;
16099;SDS011;8154;50.830;12.082;2022-12-20T18:05:20;2.70;;;2.50;;
16099;SDS011;8154;50.830;12.082;2022-12-20T18:08:03;3.20;;;2.90;;
16099;SDS011;8154;50.830;12.082;2022-12-20T18:11:04;2.90;;;2.70;;
16099;SDS011;8154;50.830;12.082;2022-12-20T18:14:02;2.90;;;2.70;;
16099;SDS011;8154;50.830;12.082;2022-12-20T18:16:38;3.00;;;2.80;;
16099;SDS011;8154;50.830;12.082;2022-12-20T18:19:43;2.90;;;2.70;;
16099;SDS011;8154;50.830;12.082;2022-12-20T18:22:25;3.15;;;2.95;;
16099;SDS011;8154;50.830;12.082;2022-12-20T18:25:24;2.90;;;2.70;;
16099;SDS011;8154;50.830;12.082;2022-12-20T18:28:22;3.38;;;3.08;;
16099;SDS011;8154;50.830;12.082;2022-12-20T18:31:02;3.20;;;2.90;;
16099;SDS011;8154;50.830;12.082;2022-12-20T18:33:48;2.92;;;2.72;;
16099;SDS011;8154;50.830;12.082;2022-12-20T18:36:33;3.13;;;2.92;;
16099;SDS011;8154;50.830;12.082;2022-12-20T18:39:39;2.90;;;2.70;;
16099;SDS011;8154;50.830;12.082;2022-12-20T18:42:26;2.97;;;2.78;;
16099;SDS011;8154;50.830;12.082;2022-12-20T18:45:10;2.83;;;2.63;;
16099;SDS011;8154;50.830;12.082;2022-12-20T18:48:07;3.17;;;2.97;;
16099;SDS011;8154;50.830;12.082;2022-12-20T18:51:13;3.05;;;2.85;;
16099;SDS011;8154;50.830;12.082;2022-12-20T18:53:51;3.15;;;2.95;;
16099;SDS011;8154;50.830;12.082;2022-12-20T18:56:39;2.83;;;2.63;;
16099;SDS011;8154;50.830;12.082;2022-12-20T18:59:34;2.78;;;2.58;;
16099;SDS011;8154;50.830;12.082;2022-12-20T19:02:22;2.97;;;2.78;;
16099;SDS011;8154;50.830;12.082;2022-12-20T19:05:07;3.13;;;2.92;;
16099;SDS011;8154;50.830;12.082;2022-12-20T19:08:02;3.42;;;3.13;;